createdAt,value
2023-01-28T00:00:25.105Z,3.98
2023-01-28T00:01:25.093Z,3.94
2023-01-28T00:02:25.142Z,4.00
2023-01-28T00:03:25.282Z,4.06
2023-01-28T00:04:25.032Z,4.01
2023-01-28T00:05:24.992Z,4.07
2023-01-28T00:06:25.142Z,4.14
2023-01-28T00:07:24.954Z,4.15
2023-01-28T00:08:24.957Z,4.18
2023-01-28T00:09:25.053Z,4.19
2023-01-28T00:10:24.922Z,4.22
2023-01-28T00:11:24.913Z,4.15
2023-01-28T00:12:24.920Z,4.12
2023-01-28T00:13:24.990Z,4.12
2023-01-28T00:14:24.881Z,4.06
2023-01-28T00:15:24.997Z,4.04
2023-01-28T00:16:24.956Z,4.00
2023-01-28T00:17:25.025Z,3.96
2023-01-28T00:18:24.836Z,4.00
2023-01-28T00:19:24.814Z,4.01
2023-01-28T00:20:24.986Z,4.06
2023-01-28T00:21:24.884Z,4.08
2023-01-28T00:22:24.761Z,4.08
2023-01-28T00:23:24.907Z,4.01
2023-01-28T00:24:24.762Z,4.03
2023-01-28T00:25:24.708Z,4.07
2023-01-28T00:26:24.811Z,4.07
2023-01-28T00:27:24.717Z,4.08
2023-01-28T00:28:24.850Z,4.08
2023-01-28T00:29:24.828Z,4.07
2023-01-28T00:30:24.722Z,3.98
2023-01-28T00:31:25.007Z,4.00
2023-01-28T00:32:24.651Z,3.97
2023-01-28T00:33:24.666Z,4.00
2023-01-28T00:34:24.598Z,3.92
2023-01-28T00:35:24.797Z,4.00
2023-01-28T00:36:24.602Z,3.98
2023-01-28T00:37:24.704Z,3.94
2023-01-28T00:38:24.598Z,3.96
2023-01-28T00:39:24.531Z,4.01
2023-01-28T00:40:24.556Z,4.14
2023-01-28T00:41:24.532Z,4.01
2023-01-28T00:42:24.570Z,3.98
2023-01-28T00:43:24.577Z,4.01
2023-01-28T00:44:24.542Z,4.04
2023-01-28T00:45:24.459Z,4.03
2023-01-28T00:46:24.598Z,4.06
2023-01-28T00:47:24.439Z,4.07
2023-01-28T00:48:24.432Z,3.98
2023-01-28T00:49:24.474Z,4.00
2023-01-28T00:50:24.482Z,3.98
2023-01-28T00:51:24.469Z,4.04
2023-01-28T00:52:24.377Z,4.08
2023-01-28T00:53:50.042Z,4.18
2023-01-28T00:54:25.384Z,4.15
2023-01-28T00:55:24.363Z,4.22
2023-01-28T00:56:24.407Z,4.24
2023-01-28T00:57:24.484Z,4.16
2023-01-28T00:58:24.336Z,4.10
2023-01-28T00:59:24.251Z,4.08
2023-01-28T01:00:24.475Z,4.14
2023-01-28T01:01:24.269Z,4.12
2023-01-28T01:02:24.268Z,4.14
2023-01-28T01:03:24.396Z,4.12
2023-01-28T01:04:24.233Z,4.08
2023-01-28T01:05:24.224Z,4.08
2023-01-28T01:07:02.099Z,4.10
2023-01-28T01:07:25.213Z,3.96
2023-01-28T01:08:24.165Z,4.01
2023-01-28T01:09:24.152Z,4.08
2023-01-28T01:10:24.342Z,4.04
2023-01-28T01:11:24.109Z,4.01
2023-01-28T01:12:24.209Z,3.98
2023-01-28T01:13:24.195Z,4.00
2023-01-28T01:14:24.101Z,3.98
2023-01-28T01:15:24.103Z,4.00
2023-01-28T01:16:24.257Z,4.03
2023-01-28T01:17:24.097Z,4.03
2023-01-28T01:18:24.191Z,4.04
2023-01-28T01:19:24.098Z,4.06
2023-01-28T01:20:23.971Z,4.04
2023-01-28T01:21:23.980Z,4.07
2023-01-28T01:22:24.231Z,4.08
2023-01-28T01:23:23.976Z,4.06
2023-01-28T01:24:23.991Z,4.01
2023-01-28T01:25:24.030Z,4.01
2023-01-28T01:26:23.973Z,4.04
2023-01-28T01:27:23.978Z,4.04
2023-01-28T01:28:24.088Z,4.08
2023-01-28T01:29:23.910Z,4.06
2023-01-28T01:30:23.879Z,4.06
2023-01-28T01:31:24.080Z,4.12
2023-01-28T01:32:23.928Z,4.12
2023-01-28T01:33:23.831Z,4.10
2023-01-28T01:34:44.947Z,4.12
2023-01-28T01:35:23.810Z,4.14
2023-01-28T01:36:23.958Z,4.16
2023-01-28T01:37:23.865Z,4.18
2023-01-28T01:38:23.869Z,4.16
2023-01-28T01:39:23.804Z,4.16
2023-01-28T01:40:23.942Z,4.21
2023-01-28T01:41:23.721Z,4.18
2023-01-28T01:42:23.685Z,4.19
2023-01-28T01:43:23.790Z,4.22
2023-01-28T01:44:23.713Z,4.21
2023-01-28T01:45:23.651Z,4.22
2023-01-28T01:46:23.951Z,4.28
2023-01-28T01:47:23.679Z,4.32
2023-01-28T01:48:23.635Z,4.37
2023-01-28T01:49:23.730Z,4.42
2023-01-28T01:50:23.618Z,4.39
2023-01-28T01:51:23.613Z,4.37
2023-01-28T01:52:23.740Z,4.37
2023-01-28T01:53:23.569Z,4.36
2023-01-28T01:54:23.568Z,4.39
2023-01-28T01:55:23.615Z,4.36
2023-01-28T01:56:23.550Z,4.40
2023-01-28T01:57:23.654Z,4.43
2023-01-28T01:58:23.615Z,4.42
2023-01-28T01:59:23.538Z,4.40
2023-01-28T02:00:23.501Z,4.36
2023-01-28T02:01:23.473Z,4.36
2023-01-28T02:02:23.705Z,4.39
2023-01-28T02:03:23.504Z,4.44
2023-01-28T02:04:23.409Z,4.43
2023-01-28T02:05:23.637Z,4.37
2023-01-28T02:06:23.441Z,4.33
2023-01-28T02:07:23.417Z,4.26
2023-01-28T02:08:23.508Z,4.32
2023-01-28T02:09:23.357Z,4.39
2023-01-28T02:10:23.345Z,4.37
2023-01-28T02:11:23.393Z,4.42
2023-01-28T02:12:23.315Z,4.37
2023-01-28T02:13:23.373Z,4.34
2023-01-28T02:14:30.988Z,4.37
2023-01-28T02:15:24.308Z,4.32
2023-01-28T02:16:23.349Z,4.40
2023-01-28T02:17:23.472Z,4.44
2023-01-28T02:18:23.305Z,4.52
2023-01-28T02:19:23.229Z,4.59
2023-01-28T02:20:23.359Z,4.69
2023-01-28T02:21:23.214Z,4.59
2023-01-28T02:22:23.192Z,4.58
2023-01-28T02:23:23.308Z,4.43
2023-01-28T02:24:23.207Z,4.34
2023-01-28T02:25:23.166Z,4.25
2023-01-28T02:26:23.348Z,4.25
2023-01-28T02:27:23.316Z,4.34
2023-01-28T02:28:23.129Z,4.36
2023-01-28T02:29:23.328Z,4.44
2023-01-28T02:30:23.062Z,4.42
2023-01-28T02:31:23.179Z,4.37
2023-01-28T02:32:23.097Z,4.43
2023-01-28T02:33:23.103Z,4.44
2023-01-28T02:34:23.031Z,4.47
2023-01-28T02:35:23.112Z,4.46
2023-01-28T02:36:23.053Z,4.57
2023-01-28T02:37:23.062Z,4.51
2023-01-28T02:38:23.076Z,4.43
2023-01-28T02:39:23.012Z,4.36
2023-01-28T02:40:22.943Z,4.26
2023-01-28T02:41:23.068Z,4.28
2023-01-28T02:42:22.944Z,4.40
2023-01-28T02:43:22.955Z,4.44
2023-01-28T02:44:23.089Z,4.44
2023-01-28T02:45:22.903Z,4.39
2023-01-28T02:46:22.965Z,4.43
2023-01-28T02:47:23.028Z,4.40
2023-01-28T02:48:22.878Z,4.47
2023-01-28T02:49:22.915Z,4.61
2023-01-28T02:51:32.742Z,4.47
2023-01-28T02:52:32.745Z,4.54
2023-01-28T02:53:32.858Z,4.59
2023-01-28T02:54:32.702Z,4.64
2023-01-28T02:55:32.781Z,4.64
2023-01-28T02:56:32.681Z,4.65
2023-01-28T02:57:32.676Z,4.67
2023-01-28T02:58:32.736Z,4.65
2023-01-28T02:59:32.629Z,4.69
2023-01-28T03:00:32.616Z,4.67
2023-01-28T03:01:32.736Z,4.64
2023-01-28T03:02:32.730Z,4.65
2023-01-28T03:03:32.736Z,4.69
2023-01-28T03:05:42.557Z,4.42
2023-01-28T03:06:32.534Z,4.37
2023-01-28T03:07:32.692Z,4.34
2023-01-28T03:08:32.504Z,4.34
2023-01-28T03:09:48.391Z,4.32
2023-01-28T03:10:33.478Z,4.24
2023-01-28T03:11:32.494Z,4.28
2023-01-28T03:12:32.609Z,4.32
2023-01-28T03:13:32.465Z,4.34
2023-01-28T03:14:32.476Z,4.37
2023-01-28T03:15:32.639Z,4.42
2023-01-28T03:16:32.446Z,4.43
2023-01-28T03:17:32.395Z,4.43
2023-01-28T03:18:32.564Z,4.43
2023-01-28T03:19:32.411Z,4.42
2023-01-28T03:20:32.397Z,4.42
2023-01-28T03:21:32.582Z,4.40
2023-01-28T03:22:32.368Z,4.50
2023-01-28T03:23:32.404Z,4.51
2023-01-28T03:24:32.552Z,4.50
2023-01-28T03:25:32.301Z,4.44
2023-01-28T03:26:32.275Z,4.51
2023-01-28T03:27:32.473Z,4.52
2023-01-28T03:28:32.256Z,4.42
2023-01-28T03:29:32.256Z,4.42
2023-01-28T03:30:32.477Z,4.43
2023-01-28T03:31:32.279Z,4.42
2023-01-28T03:32:32.288Z,4.46
2023-01-28T03:33:32.344Z,4.54
2023-01-28T03:34:32.256Z,4.52
2023-01-28T03:35:32.259Z,4.50
2023-01-28T03:36:32.345Z,4.46
2023-01-28T03:37:32.196Z,4.47
2023-01-28T03:38:32.151Z,4.54
2023-01-28T03:39:32.288Z,4.55
2023-01-28T03:40:32.147Z,4.47
2023-01-28T03:41:32.093Z,4.36
2023-01-28T03:42:32.251Z,4.26
2023-01-28T03:43:32.066Z,4.22
2023-01-28T03:44:32.052Z,4.21
2023-01-28T03:45:32.183Z,4.22
2023-01-28T03:46:32.048Z,4.15
2023-01-28T03:47:32.015Z,4.19
2023-01-28T03:48:32.183Z,4.18
2023-01-28T03:49:32.039Z,4.16
2023-01-28T03:50:32.011Z,4.10
2023-01-28T03:51:32.104Z,4.14
2023-01-28T03:52:31.987Z,4.07
2023-01-28T03:53:31.948Z,3.98
2023-01-28T03:54:31.993Z,4.00
2023-01-28T03:55:31.926Z,3.98
2023-01-28T03:56:31.938Z,4.01
2023-01-28T03:57:32.069Z,3.94
2023-01-28T03:58:31.867Z,3.88
2023-01-28T03:59:31.893Z,3.85
2023-01-28T04:00:31.913Z,3.82
2023-01-28T04:01:31.868Z,3.80
2023-01-28T04:02:31.877Z,3.79
2023-01-28T04:03:31.892Z,3.75
2023-01-28T04:04:31.821Z,3.78
2023-01-28T04:05:31.770Z,3.79
2023-01-28T04:06:31.925Z,3.78
2023-01-28T04:07:31.764Z,3.75
2023-01-28T04:08:31.760Z,3.76
2023-01-28T04:09:31.773Z,3.75
2023-01-28T04:10:31.717Z,3.72
2023-01-28T04:11:31.698Z,3.70
2023-01-28T04:12:31.747Z,3.76
2023-01-28T04:13:31.660Z,3.72
2023-01-28T04:14:31.653Z,3.71
2023-01-28T04:15:31.675Z,3.70
2023-01-28T04:16:31.685Z,3.70
2023-01-28T04:17:31.625Z,3.70
2023-01-28T04:18:31.776Z,3.67
2023-01-28T04:19:31.597Z,3.79
2023-01-28T04:20:31.579Z,3.76
2023-01-28T04:21:31.619Z,3.68
2023-01-28T04:22:31.547Z,3.64
2023-01-28T04:23:31.596Z,3.58
2023-01-28T04:24:31.687Z,3.52
2023-01-28T04:25:31.518Z,3.47
2023-01-28T04:26:31.521Z,3.52
2023-01-28T04:27:31.603Z,3.50
2023-01-28T04:28:31.476Z,3.49
2023-01-28T04:29:31.518Z,3.47
2023-01-28T04:30:31.602Z,3.43
2023-01-28T04:31:31.464Z,3.40
2023-01-28T04:32:31.415Z,3.39
2023-01-28T04:33:31.469Z,3.39
2023-01-28T04:34:31.409Z,3.40
2023-01-28T04:35:31.415Z,3.43
2023-01-28T04:36:31.421Z,3.39
2023-01-28T04:37:31.367Z,3.36
2023-01-28T04:38:31.347Z,3.28
2023-01-28T04:39:31.430Z,3.27
2023-01-28T04:40:31.315Z,3.20
2023-01-28T04:41:31.315Z,3.13
2023-01-28T04:42:31.404Z,3.10
2023-01-28T04:43:31.281Z,3.12
2023-01-28T04:44:31.264Z,3.13
2023-01-28T04:45:31.275Z,3.13
2023-01-28T04:46:31.276Z,3.13
2023-01-28T04:47:31.264Z,3.20
2023-01-28T04:48:31.221Z,3.16
2023-01-28T04:49:31.244Z,3.21
2023-01-28T04:50:31.180Z,3.24
2023-01-28T04:51:31.186Z,3.27
2023-01-28T04:52:31.225Z,3.24
2023-01-28T04:53:31.173Z,3.25
2023-01-28T04:54:31.135Z,3.28
2023-01-28T04:55:31.185Z,3.30
2023-01-28T04:56:31.101Z,3.33
2023-01-28T04:57:31.090Z,3.25
2023-01-28T04:58:31.102Z,3.24
2023-01-28T04:59:31.070Z,3.20
2023-01-28T05:00:31.051Z,3.21
2023-01-28T05:01:31.153Z,3.18
2023-01-28T05:02:31.044Z,3.15
2023-01-28T05:03:31.025Z,3.18
2023-01-28T05:04:31.060Z,3.23
2023-01-28T05:05:30.973Z,3.18
2023-01-28T05:06:31.039Z,3.18
2023-01-28T05:07:30.972Z,3.21
2023-01-28T05:08:30.941Z,3.21
2023-01-28T05:09:30.940Z,3.25
2023-01-28T05:10:30.970Z,3.28
2023-01-28T05:11:30.903Z,3.31
2023-01-28T05:12:30.911Z,3.33
2023-01-28T05:13:30.887Z,3.40
2023-01-28T05:14:30.892Z,3.43
2023-01-28T05:15:30.849Z,3.46
2023-01-28T05:16:30.848Z,3.47
2023-01-28T05:17:30.888Z,3.50
2023-01-28T05:18:30.810Z,3.52
2023-01-28T05:19:30.821Z,3.50
2023-01-28T05:20:30.833Z,3.60
2023-01-28T05:21:31.691Z,3.64
2023-01-28T05:22:30.769Z,3.47
2023-01-28T05:23:30.760Z,3.39
2023-01-28T05:24:30.948Z,3.33
2023-01-28T05:25:30.749Z,3.30
2023-01-28T05:26:30.769Z,3.33
2023-01-28T05:27:30.690Z,3.28
2023-01-28T05:28:30.708Z,3.39
2023-01-28T05:29:30.655Z,3.49
2023-01-28T05:30:30.714Z,3.57
2023-01-28T05:31:30.702Z,3.58
2023-01-28T05:32:30.725Z,3.67
2023-01-28T05:33:30.634Z,3.71
2023-01-28T05:34:30.681Z,3.60
2023-01-28T05:35:30.623Z,3.46
2023-01-28T05:36:30.587Z,3.54
2023-01-28T05:37:30.591Z,3.57
2023-01-28T05:38:30.606Z,3.57
2023-01-28T05:39:30.527Z,3.53
2023-01-28T05:40:30.806Z,3.44
2023-01-28T05:41:30.552Z,3.33
2023-01-28T05:42:30.505Z,3.39
2023-01-28T05:43:30.653Z,3.44
2023-01-28T05:44:30.579Z,3.47
2023-01-28T05:45:30.491Z,3.39
2023-01-28T05:46:30.570Z,3.39
2023-01-28T05:47:30.464Z,3.40
2023-01-28T05:48:30.406Z,3.43
2023-01-28T05:49:30.470Z,3.47
2023-01-28T05:50:30.425Z,3.50
2023-01-28T05:51:30.387Z,3.60
2023-01-28T05:52:30.727Z,3.65
2023-01-28T05:53:30.341Z,3.70
2023-01-28T05:54:30.345Z,3.64
2023-01-28T05:55:30.395Z,3.62
2023-01-28T05:56:30.355Z,3.64
2023-01-28T05:57:30.285Z,3.68
2023-01-28T05:58:30.341Z,3.65
2023-01-28T05:59:30.294Z,3.70
2023-01-28T06:00:30.299Z,3.71
2023-01-28T06:01:30.282Z,3.79
2023-01-28T06:02:30.329Z,3.85
2023-01-28T06:03:30.245Z,3.85
2023-01-28T06:04:30.257Z,3.80
2023-01-28T06:05:30.292Z,3.82
2023-01-28T06:06:30.194Z,3.79
2023-01-28T06:07:30.178Z,3.79
2023-01-28T06:08:30.194Z,3.70
2023-01-28T06:09:30.152Z,3.68
2023-01-28T06:10:30.184Z,3.67
2023-01-28T06:11:30.165Z,3.71
2023-01-28T06:12:30.113Z,3.71
2023-01-28T06:13:30.094Z,3.72
2023-01-28T06:14:30.124Z,3.71
2023-01-28T06:15:30.112Z,3.80
2023-01-28T06:16:30.072Z,3.83
2023-01-28T06:17:30.146Z,3.83
2023-01-28T06:18:30.063Z,3.88
2023-01-28T06:19:30.013Z,3.86
2023-01-28T06:20:30.058Z,3.80
2023-01-28T06:21:30.389Z,3.78
2023-01-28T06:22:29.990Z,3.76
2023-01-28T06:23:29.996Z,3.72
2023-01-28T06:24:30.076Z,3.80
2023-01-28T06:25:29.942Z,3.82
2023-01-28T06:26:29.927Z,3.85
2023-01-28T06:27:29.978Z,3.86
2023-01-28T06:28:29.910Z,3.90
2023-01-28T06:29:29.888Z,3.89
2023-01-28T06:30:29.927Z,3.94
2023-01-28T06:31:29.871Z,3.92
2023-01-28T06:32:29.948Z,4.00
2023-01-28T06:33:29.821Z,3.97
2023-01-28T06:34:29.892Z,4.00
2023-01-28T06:35:29.807Z,4.01
2023-01-28T06:36:29.834Z,4.03
2023-01-28T06:37:29.838Z,4.08
2023-01-28T06:38:29.762Z,4.07
2023-01-28T06:39:29.845Z,4.08
2023-01-28T06:40:29.823Z,4.10
2023-01-28T06:41:29.783Z,4.10
2023-01-28T06:42:29.831Z,4.01
2023-01-28T06:43:29.889Z,3.94
2023-01-28T06:44:29.697Z,3.92
2023-01-28T06:45:29.696Z,3.96
2023-01-28T06:46:29.792Z,3.90
2023-01-28T06:47:29.680Z,3.96
2023-01-28T06:48:29.709Z,4.01
2023-01-28T06:49:29.707Z,4.07
2023-01-28T06:50:29.627Z,3.94
2023-01-28T06:51:29.599Z,3.89
2023-01-28T06:52:29.619Z,3.92
2023-01-28T06:53:29.689Z,3.82
2023-01-28T06:54:29.762Z,3.83
2023-01-28T06:55:29.595Z,3.83
2023-01-28T06:56:29.733Z,3.86
2023-01-28T06:57:29.564Z,3.86
2023-01-28T06:58:29.585Z,3.86
2023-01-28T06:59:29.712Z,3.88
2023-01-28T07:00:29.613Z,3.82
2023-01-28T07:01:29.507Z,3.80
2023-01-28T07:02:29.675Z,3.80
2023-01-28T07:03:29.445Z,3.79
2023-01-28T07:04:29.477Z,3.78
2023-01-28T07:05:29.681Z,3.79
2023-01-28T07:06:29.413Z,3.80
2023-01-28T07:07:29.409Z,3.79
2023-01-28T07:08:29.494Z,3.82
2023-01-28T07:09:29.375Z,3.79
2023-01-28T07:10:29.528Z,3.80
2023-01-28T07:11:29.425Z,3.78
2023-01-28T07:12:29.329Z,3.80
2023-01-28T07:13:29.381Z,3.79
2023-01-28T07:14:29.407Z,3.68
2023-01-28T07:15:29.294Z,3.72
2023-01-28T07:16:50.593Z,3.78
2023-01-28T07:17:29.334Z,3.79
2023-01-28T07:18:29.299Z,3.82
2023-01-28T07:20:10.736Z,3.85
2023-01-28T07:20:30.332Z,3.70
2023-01-28T07:21:29.226Z,3.76
2023-01-28T07:23:29.252Z,3.80
2023-01-28T07:24:28.698Z,3.85
2023-01-28T07:25:28.707Z,3.85
2023-01-28T07:26:28.797Z,3.80
2023-01-28T07:27:28.644Z,3.82
2023-01-28T07:28:28.644Z,3.83
2023-01-28T07:29:29.106Z,3.85
2023-01-28T07:30:28.574Z,3.80
2023-01-28T07:31:28.736Z,3.79
2023-01-28T07:32:28.546Z,3.79
2023-01-28T07:33:28.589Z,3.80
2023-01-28T07:34:28.628Z,3.79
2023-01-28T07:35:28.532Z,3.78
2023-01-28T07:36:28.601Z,3.79
2023-01-28T07:37:28.483Z,3.83
2023-01-28T07:38:28.473Z,3.80
2023-01-28T07:40:37.941Z,3.68
2023-01-28T07:41:37.852Z,3.72
2023-01-28T07:42:37.989Z,3.70
2023-01-28T07:43:37.867Z,3.72
2023-01-28T07:44:37.840Z,3.79
2023-01-28T07:45:37.826Z,3.86
2023-01-28T07:46:37.965Z,3.86
2023-01-28T07:47:37.802Z,3.86
2023-01-28T07:48:37.771Z,3.88
2023-01-28T07:49:37.801Z,3.82
2023-01-28T07:50:38.011Z,3.82
2023-01-28T07:51:37.736Z,3.82
2023-01-28T07:52:37.763Z,3.83
2023-01-28T07:53:37.708Z,3.80
2023-01-28T07:54:42.122Z,3.80
2023-01-28T07:55:37.712Z,3.86
2023-01-28T07:56:37.709Z,3.92
2023-01-28T07:57:37.749Z,3.94
2023-01-28T07:58:37.703Z,3.98
2023-01-28T07:59:37.670Z,4.00
2023-01-28T08:00:37.754Z,3.96
2023-01-28T08:01:37.646Z,3.94
2023-01-28T08:02:37.588Z,3.96
2023-01-28T08:03:37.559Z,3.92
2023-01-28T08:04:37.886Z,3.88
2023-01-28T08:05:37.731Z,3.96
2023-01-28T08:06:37.793Z,3.97
2023-01-28T08:07:37.573Z,3.97
2023-01-28T08:08:37.551Z,3.98
2023-01-28T08:09:37.485Z,3.97
2023-01-28T08:10:37.541Z,4.00
2023-01-28T08:11:37.554Z,4.00
2023-01-28T08:12:37.486Z,3.98
2023-01-28T08:13:37.528Z,4.04
2023-01-28T08:14:37.565Z,4.10
2023-01-28T08:15:37.476Z,4.01
2023-01-28T08:16:37.444Z,4.00
2023-01-28T08:17:37.611Z,4.03
2023-01-28T08:18:37.486Z,4.06
2023-01-28T08:19:37.384Z,4.04
2023-01-28T08:20:37.483Z,4.07
2023-01-28T08:21:37.499Z,4.14
2023-01-28T08:22:37.411Z,4.19
2023-01-28T08:23:37.484Z,4.22
2023-01-28T08:24:37.356Z,4.28
2023-01-28T08:25:37.314Z,4.28
2023-01-28T08:26:37.323Z,4.25
2023-01-28T08:27:37.415Z,4.21
2023-01-28T08:28:37.276Z,4.21
2023-01-28T08:29:37.273Z,4.21
2023-01-28T08:30:37.474Z,4.19
2023-01-28T08:31:37.482Z,4.24
2023-01-28T08:32:37.291Z,4.14
2023-01-28T08:33:40.449Z,4.08
2023-01-28T08:34:37.222Z,4.14
2023-01-28T08:35:37.172Z,4.07
2023-01-28T08:36:37.247Z,4.08
2023-01-28T08:37:37.131Z,4.12
2023-01-28T08:38:37.239Z,4.12
2023-01-28T08:39:37.192Z,4.07
2023-01-28T08:40:37.154Z,4.01
2023-01-28T08:41:37.097Z,4.03
2023-01-28T08:42:37.064Z,4.01
2023-01-28T08:43:37.111Z,4.07
2023-01-28T08:44:37.078Z,4.06
2023-01-28T08:45:37.014Z,4.14
2023-01-28T08:46:37.046Z,4.14
2023-01-28T08:47:37.024Z,4.14
2023-01-28T08:48:36.977Z,4.12
2023-01-28T08:49:37.045Z,4.08
2023-01-28T08:50:37.042Z,4.14
2023-01-28T08:51:36.962Z,4.15
2023-01-28T08:52:36.943Z,4.19
2023-01-28T08:53:36.955Z,4.16
2023-01-28T08:54:36.916Z,4.21
2023-01-28T08:55:36.969Z,4.22
2023-01-28T08:56:36.883Z,4.25
2023-01-28T08:57:36.925Z,4.19
2023-01-28T08:58:36.866Z,4.18
2023-01-28T08:59:36.839Z,4.16
2023-01-28T09:00:36.857Z,4.22
2023-01-28T09:01:36.939Z,4.15
2023-01-28T09:02:36.792Z,4.08
2023-01-28T09:03:36.853Z,4.04
2023-01-28T09:04:36.786Z,4.12
2023-01-28T09:05:36.820Z,4.21
2023-01-28T09:06:36.752Z,4.19
2023-01-28T09:07:36.739Z,4.14
2023-01-28T09:08:36.713Z,4.16
2023-01-28T09:09:36.739Z,4.16
2023-01-28T09:10:36.691Z,4.21
2023-01-28T09:11:36.683Z,4.22
2023-01-28T09:12:36.823Z,4.25
2023-01-28T09:13:36.654Z,4.16
2023-01-28T09:14:36.632Z,4.22
2023-01-28T09:15:36.650Z,4.16
2023-01-28T09:16:36.602Z,4.14
2023-01-28T09:17:36.604Z,4.00
2023-01-28T09:18:36.620Z,4.00
2023-01-28T09:19:36.626Z,4.07
2023-01-28T09:20:36.552Z,4.22
2023-01-28T09:21:36.610Z,4.18
2023-01-28T09:22:36.562Z,4.21
2023-01-28T09:23:36.525Z,4.22
2023-01-28T09:24:38.845Z,4.14
2023-01-28T09:25:36.486Z,4.12
2023-01-28T09:26:36.473Z,4.12
2023-01-28T09:27:36.518Z,4.22
2023-01-28T09:28:36.468Z,4.19
2023-01-28T09:29:36.447Z,4.15
2023-01-28T09:30:37.960Z,4.22
2023-01-28T09:31:36.457Z,4.22
2023-01-28T09:32:36.441Z,4.19
2023-01-28T09:33:36.408Z,4.14
2023-01-28T09:34:36.445Z,4.15
2023-01-28T09:35:36.416Z,4.18
2023-01-28T09:36:36.381Z,4.14
2023-01-28T09:37:36.404Z,4.07
2023-01-28T09:38:36.321Z,4.00
2023-01-28T09:39:36.339Z,4.00
2023-01-28T09:40:36.339Z,4.00
2023-01-28T09:41:36.330Z,4.01
2023-01-28T09:42:36.314Z,4.01
2023-01-28T09:43:36.360Z,3.90
2023-01-28T09:44:36.246Z,3.82
2023-01-28T09:45:36.261Z,3.76
2023-01-28T09:46:36.289Z,3.75
2023-01-28T09:47:36.213Z,3.72
2023-01-28T09:48:36.305Z,3.72
2023-01-28T09:49:36.201Z,3.76
2023-01-28T09:50:36.173Z,3.75
2023-01-28T09:51:36.845Z,3.88
2023-01-28T09:52:36.202Z,3.97
2023-01-28T09:53:36.167Z,3.98
2023-01-28T09:54:36.154Z,4.01
2023-01-28T09:55:36.170Z,4.00
2023-01-28T09:56:36.099Z,3.98
2023-01-28T09:57:36.086Z,4.04
2023-01-28T09:58:36.124Z,4.10
2023-01-28T09:59:36.089Z,4.18
2023-01-28T10:00:36.091Z,4.19
2023-01-28T10:01:36.095Z,4.07
2023-01-28T10:02:36.050Z,4.19
2023-01-28T10:03:36.056Z,4.28
2023-01-28T10:04:36.081Z,4.29
2023-01-28T10:05:36.474Z,4.34
2023-01-28T10:06:36.012Z,4.43
2023-01-28T10:07:36.003Z,4.36
2023-01-28T10:08:35.942Z,4.21
2023-01-28T10:09:35.934Z,4.28
2023-01-28T10:10:36.011Z,4.32
2023-01-28T10:11:35.943Z,4.36
2023-01-28T10:12:35.943Z,4.43
2023-01-28T10:13:35.910Z,4.36
2023-01-28T10:14:35.889Z,4.24
2023-01-28T10:15:35.866Z,4.39
2023-01-28T10:16:35.837Z,4.34
2023-01-28T10:17:35.899Z,4.50
2023-01-28T10:18:35.844Z,4.51
2023-01-28T10:19:35.802Z,4.36
2023-01-28T10:20:35.883Z,4.34
2023-01-28T10:21:35.775Z,4.37
2023-01-28T10:22:35.775Z,4.34
2023-01-28T10:23:35.817Z,4.51
2023-01-28T10:24:35.818Z,4.62
2023-01-28T10:25:35.717Z,4.64
2023-01-28T10:26:35.811Z,4.55
2023-01-28T10:27:35.719Z,4.54
2023-01-28T10:28:35.669Z,4.47
2023-01-28T10:29:35.805Z,4.50
2023-01-28T10:30:36.704Z,4.55
2023-01-28T10:31:35.694Z,4.62
2023-01-28T10:32:35.752Z,4.51
2023-01-28T10:33:35.623Z,4.47
2023-01-28T10:34:35.649Z,4.46
2023-01-28T10:35:35.705Z,4.54
2023-01-28T10:36:35.605Z,4.55
2023-01-28T10:37:35.564Z,4.59
2023-01-28T10:38:35.566Z,4.55
2023-01-28T10:39:35.571Z,4.54
2023-01-28T10:40:35.520Z,4.61
2023-01-28T10:41:38.242Z,4.59
2023-01-28T10:42:36.629Z,4.69
2023-01-28T10:43:35.456Z,4.67
2023-01-28T10:44:35.453Z,4.59
2023-01-28T10:45:35.555Z,4.59
2023-01-28T10:46:35.429Z,4.50
2023-01-28T10:47:35.409Z,4.47
2023-01-28T10:48:35.538Z,4.40
2023-01-28T10:49:35.393Z,4.39
2023-01-28T10:50:35.423Z,4.39
2023-01-28T10:51:35.361Z,4.34
2023-01-28T10:52:35.377Z,4.36
2023-01-28T10:53:35.337Z,4.37
2023-01-28T10:54:35.367Z,4.36
2023-01-28T10:55:35.493Z,4.34
2023-01-28T10:56:35.305Z,4.32
2023-01-28T10:57:35.295Z,4.26
2023-01-28T10:58:35.406Z,4.34
2023-01-28T10:59:35.270Z,4.44
2023-01-28T11:00:35.278Z,4.47
2023-01-28T11:01:35.291Z,4.43
2023-01-28T11:02:35.249Z,4.46
2023-01-28T11:03:35.215Z,4.46
2023-01-28T11:04:35.258Z,4.51
2023-01-28T11:05:35.192Z,4.52
2023-01-28T11:06:35.236Z,4.61
2023-01-28T11:07:35.232Z,4.65
2023-01-28T11:08:35.164Z,4.47
2023-01-28T11:09:35.127Z,4.51
2023-01-28T11:10:35.175Z,4.52
2023-01-28T11:11:35.111Z,4.46
2023-01-28T11:12:35.196Z,4.54
2023-01-28T11:13:35.237Z,4.58
2023-01-28T11:14:35.070Z,4.62
2023-01-28T11:15:35.027Z,4.59
2023-01-28T11:16:35.073Z,4.51
2023-01-28T11:17:35.112Z,4.55
2023-01-28T11:18:35.030Z,4.51
2023-01-28T11:19:34.986Z,4.57
2023-01-28T11:20:35.017Z,4.52
2023-01-28T11:21:34.945Z,4.51
2023-01-28T11:22:34.985Z,4.54
2023-01-28T11:23:34.990Z,4.55
2023-01-28T11:24:35.038Z,4.58
2023-01-28T11:25:34.896Z,4.52
2023-01-28T11:26:34.955Z,4.52
2023-01-28T11:27:34.877Z,4.52
2023-01-28T11:28:34.904Z,4.47
2023-01-28T11:29:34.961Z,4.44
2023-01-28T11:30:34.939Z,4.46
2023-01-28T11:31:34.977Z,4.46
2023-01-28T11:32:34.851Z,4.44
2023-01-28T11:33:34.809Z,4.51
2023-01-28T11:34:34.826Z,4.51
2023-01-28T11:35:34.767Z,4.52
2023-01-28T11:36:34.877Z,4.51
2023-01-28T11:37:34.733Z,4.46
2023-01-28T11:38:34.723Z,4.44
2023-01-28T11:39:34.752Z,4.40
2023-01-28T11:40:34.716Z,4.34
2023-01-28T11:41:34.683Z,4.46
2023-01-28T11:42:34.764Z,4.39
2023-01-28T11:43:34.662Z,4.42
2023-01-28T11:44:34.667Z,4.43
2023-01-28T11:45:34.773Z,4.39
2023-01-28T11:46:34.651Z,4.50
2023-01-28T11:47:34.637Z,4.44
2023-01-28T11:48:34.679Z,4.40
2023-01-28T11:49:34.632Z,4.40
2023-01-28T11:50:34.560Z,4.44
2023-01-28T11:51:34.628Z,4.44
2023-01-28T11:52:55.306Z,4.46
2023-01-28T11:53:35.550Z,4.54
2023-01-28T11:54:34.617Z,4.46
2023-01-28T11:55:34.572Z,4.59
2023-01-28T11:56:34.541Z,4.61
2023-01-28T11:57:34.522Z,4.65
2023-01-28T11:58:34.461Z,4.64
2023-01-28T11:59:34.455Z,4.70
2023-01-28T12:00:34.471Z,4.73
2023-01-28T12:01:34.403Z,4.55
2023-01-28T12:02:34.475Z,4.44
2023-01-28T12:03:34.458Z,4.51
2023-01-28T12:04:34.429Z,4.51
2023-01-28T12:05:34.362Z,4.51
2023-01-28T12:06:35.692Z,4.52
2023-01-28T12:07:34.455Z,4.51
2023-01-28T12:08:34.327Z,4.61
2023-01-28T12:09:34.385Z,4.64
2023-01-28T12:10:34.336Z,4.58
2023-01-28T12:11:34.315Z,4.57
2023-01-28T12:12:34.360Z,4.64
2023-01-28T12:13:34.271Z,4.67
2023-01-28T12:14:34.278Z,4.65
2023-01-28T12:15:34.403Z,4.65
2023-01-28T12:16:34.227Z,4.70
2023-01-28T12:17:34.228Z,4.67
2023-01-28T12:18:34.277Z,4.65
2023-01-28T12:19:34.246Z,4.72
2023-01-28T12:20:34.184Z,4.75
2023-01-28T12:21:34.272Z,4.80
2023-01-28T12:22:34.167Z,4.83
2023-01-28T12:23:34.154Z,4.88
2023-01-28T12:24:34.305Z,4.80
2023-01-28T12:25:34.160Z,4.75
2023-01-28T12:26:34.088Z,4.70
2023-01-28T12:27:34.095Z,4.83
2023-01-28T12:28:34.080Z,4.99
2023-01-28T12:29:34.065Z,5.05
2023-01-28T12:30:34.217Z,5.02
2023-01-28T12:31:34.160Z,4.95
2023-01-28T12:32:34.093Z,4.96
2023-01-28T12:33:33.977Z,4.91
2023-01-28T12:34:34.063Z,4.83
2023-01-28T12:35:34.045Z,4.83
2023-01-28T12:36:33.985Z,4.92
2023-01-28T12:37:33.935Z,4.92
2023-01-28T12:38:34.008Z,5.05
2023-01-28T12:39:33.952Z,5.09
2023-01-28T12:40:33.918Z,5.04
2023-01-28T12:41:34.082Z,5.09
2023-01-28T12:42:33.927Z,5.05
2023-01-28T12:43:33.858Z,5.04
2023-01-28T12:44:33.844Z,4.94
2023-01-28T12:45:33.935Z,4.92
2023-01-28T12:46:33.848Z,4.98
2023-01-28T12:47:33.793Z,4.91
2023-01-28T12:48:33.908Z,4.94
2023-01-28T12:49:33.763Z,4.94
2023-01-28T12:50:33.764Z,4.99
2023-01-28T12:51:33.810Z,5.10
2023-01-28T12:52:33.798Z,5.09
2023-01-28T12:53:33.742Z,5.10
2023-01-28T12:54:33.809Z,5.19
2023-01-28T12:55:33.690Z,5.10
2023-01-28T12:56:33.706Z,4.99
2023-01-28T12:57:33.722Z,4.95
2023-01-28T12:58:33.702Z,5.05
2023-01-28T12:59:33.718Z,5.19
2023-01-28T13:00:33.698Z,5.22
2023-01-28T13:01:33.634Z,5.13
2023-01-28T13:02:33.603Z,5.02
2023-01-28T13:03:33.735Z,5.02
2023-01-28T13:04:33.634Z,4.99
2023-01-28T13:05:33.602Z,5.02
2023-01-28T13:06:33.578Z,5.14
2023-01-28T13:07:33.613Z,5.10
2023-01-28T13:08:33.553Z,5.09
2023-01-28T13:09:33.494Z,5.07
2023-01-28T13:10:33.495Z,5.10
2023-01-28T13:11:33.463Z,4.98
2023-01-28T13:12:33.472Z,4.95
2023-01-28T13:13:33.493Z,4.92
2023-01-28T13:14:33.497Z,5.01
2023-01-28T13:15:33.444Z,5.16
2023-01-28T13:16:37.888Z,5.23
2023-01-28T13:17:33.404Z,5.19
2023-01-28T13:18:33.447Z,5.12
2023-01-28T13:19:33.404Z,5.14
2023-01-28T13:20:33.372Z,5.22
2023-01-28T13:21:40.163Z,5.13
2023-01-28T13:22:34.389Z,5.07